createdAt,value
2023-04-27T00:00:18.037Z,63.73
2023-04-27T00:03:24.514Z,63.76
2023-04-27T00:06:30.078Z,63.79
2023-04-27T00:09:35.911Z,63.84
2023-04-27T00:12:41.464Z,63.86
2023-04-27T00:15:47.653Z,63.93
2023-04-27T00:18:54.210Z,63.99
2023-04-27T00:22:00.686Z,64.11
2023-04-27T00:25:07.275Z,64.18
2023-04-27T00:28:13.337Z,64.23
2023-04-27T00:31:19.642Z,64.32
2023-04-27T00:34:25.105Z,64.43
2023-04-27T00:37:31.264Z,64.48
2023-04-27T00:40:36.246Z,64.52
2023-04-27T00:43:41.434Z,64.59
2023-04-27T00:46:47.070Z,64.65
2023-04-27T00:49:52.980Z,64.76
2023-04-27T00:52:58.920Z,64.81
2023-04-27T00:56:05.188Z,64.84
2023-04-27T00:59:11.897Z,64.90
2023-04-27T01:02:17.839Z,64.97
2023-04-27T01:05:24.420Z,65.04
2023-04-27T01:08:29.599Z,65.12
2023-04-27T01:11:34.802Z,65.06
2023-04-27T01:14:39.627Z,65.04
2023-04-27T01:17:44.727Z,65.15
2023-04-27T01:20:51.421Z,65.22
2023-04-27T01:23:58.341Z,65.28
2023-04-27T01:27:04.370Z,65.28
2023-04-27T01:30:11.042Z,65.39
2023-04-27T01:33:16.598Z,65.41
2023-04-27T01:36:22.806Z,65.45
2023-04-27T01:39:27.896Z,65.47
2023-04-27T01:42:32.659Z,65.53
2023-04-27T01:45:40.126Z,65.58
2023-04-27T01:48:45.482Z,65.60
2023-04-27T01:51:50.854Z,65.69
2023-04-27T01:54:56.188Z,65.75
2023-04-27T01:58:03.049Z,65.79
2023-04-27T02:01:08.282Z,65.82
2023-04-27T02:04:14.228Z,65.75
2023-04-27T02:07:14.116Z,65.73
2023-04-27T02:10:22.086Z,65.77
2023-04-27T02:13:27.862Z,65.89
2023-04-27T02:16:34.073Z,65.94
2023-04-27T02:19:33.638Z,66.02
2023-04-27T02:22:40.003Z,65.93
2023-04-27T02:25:45.784Z,66.02
2023-04-27T02:28:52.143Z,66.08
2023-04-27T02:31:58.368Z,66.08
2023-04-27T02:35:05.311Z,66.04
2023-04-27T02:38:11.654Z,66.11
2023-04-27T02:41:17.012Z,66.19
2023-04-27T02:44:25.070Z,66.27
2023-04-27T02:47:32.194Z,66.39
2023-04-27T02:50:38.241Z,66.43
2023-04-27T02:53:43.632Z,66.37
2023-04-27T02:56:49.033Z,66.39
2023-04-27T02:59:54.481Z,66.49
2023-04-27T03:03:00.655Z,66.62
2023-04-27T03:06:06.852Z,66.72
2023-04-27T03:09:13.267Z,66.80
2023-04-27T03:12:21.183Z,66.82
2023-04-27T03:15:27.561Z,66.80
2023-04-27T03:18:33.897Z,66.75
2023-04-27T03:21:39.766Z,66.79
2023-04-27T03:24:47.794Z,66.78
2023-04-27T03:27:54.579Z,66.85
2023-04-27T03:31:00.922Z,66.81
2023-04-27T03:34:06.793Z,66.78
2023-04-27T03:37:13.685Z,66.87
2023-04-27T03:40:19.310Z,66.98
2023-04-27T03:43:25.475Z,67.05
2023-04-27T03:46:32.739Z,67.06
2023-04-27T03:49:38.116Z,67.10
2023-04-27T03:52:44.872Z,67.17
2023-04-27T03:55:57.618Z,67.20
2023-04-27T03:59:02.434Z,67.20
2023-04-27T04:02:13.805Z,67.18
2023-04-27T04:05:21.551Z,67.16
2023-04-27T04:08:28.333Z,67.11
2023-04-27T04:11:34.957Z,67.10
2023-04-27T04:14:42.012Z,67.12
2023-04-27T04:17:48.202Z,67.13
2023-04-27T04:20:54.114Z,67.12
2023-04-27T04:24:01.950Z,67.08
2023-04-27T04:27:10.140Z,67.02
2023-04-27T04:30:15.360Z,66.90
2023-04-27T04:33:20.521Z,66.86
2023-04-27T04:36:26.332Z,66.85
2023-04-27T04:39:33.713Z,66.85
2023-04-27T04:42:41.166Z,66.83
2023-04-27T04:45:46.240Z,66.78
2023-04-27T04:48:45.498Z,66.70
2023-04-27T04:51:38.945Z,66.71
2023-04-27T04:54:44.208Z,66.69
2023-04-27T04:57:50.816Z,66.71
2023-04-27T05:00:55.876Z,66.66
2023-04-27T05:04:02.059Z,66.53
2023-04-27T05:07:08.778Z,66.57
2023-04-27T05:10:15.877Z,66.54
2023-04-27T05:13:21.949Z,66.53
2023-04-27T05:16:26.977Z,66.59
2023-04-27T05:19:34.409Z,66.67
2023-04-27T05:22:40.327Z,66.54
2023-04-27T05:25:48.572Z,66.42
2023-04-27T05:28:57.661Z,66.48
2023-04-27T05:32:04.456Z,66.39
2023-04-27T05:35:12.135Z,66.32
2023-04-27T05:38:17.745Z,66.25
2023-04-27T05:41:22.991Z,66.22
2023-04-27T05:44:31.245Z,66.21
2023-04-27T05:47:38.039Z,66.15
2023-04-27T05:50:44.110Z,65.97
2023-04-27T05:53:49.849Z,65.98
2023-04-27T05:56:55.428Z,65.99
2023-04-27T06:00:00.836Z,65.89
2023-04-27T06:03:07.984Z,65.83
2023-04-27T06:06:15.008Z,65.87
2023-04-27T06:09:20.919Z,65.80
2023-04-27T06:12:26.835Z,65.77
2023-04-27T06:15:34.911Z,65.61
2023-04-27T06:18:40.342Z,65.58
2023-04-27T06:21:50.442Z,65.55
2023-04-27T06:24:57.314Z,65.54
2023-04-27T06:28:04.432Z,65.50
2023-04-27T06:31:10.519Z,65.43
2023-04-27T06:34:15.728Z,65.49
2023-04-27T06:37:25.476Z,65.33
2023-04-27T06:40:32.545Z,65.43
2023-04-27T06:43:40.043Z,65.30
2023-04-27T06:46:46.143Z,65.10
2023-04-27T06:49:53.858Z,65.11
2023-04-27T06:53:00.302Z,65.23
2023-04-27T06:56:06.344Z,65.29
2023-04-27T06:59:12.272Z,65.31
2023-04-27T07:02:17.926Z,65.38
2023-04-27T07:05:24.995Z,65.36
2023-04-27T07:08:32.603Z,65.40
2023-04-27T07:11:38.825Z,65.36
2023-04-27T07:14:44.137Z,65.41
2023-04-27T07:17:50.121Z,65.43
2023-04-27T07:20:58.235Z,65.46
2023-04-27T07:24:05.150Z,65.49
2023-04-27T07:27:10.491Z,65.54
2023-04-27T07:30:17.013Z,65.54
2023-04-27T07:33:22.958Z,65.56
2023-04-27T07:36:29.408Z,65.63
2023-04-27T07:39:35.526Z,65.66
2023-04-27T07:42:42.790Z,65.65
2023-04-27T07:45:48.920Z,65.64
2023-04-27T07:48:57.471Z,65.66
2023-04-27T07:52:04.623Z,65.64
2023-04-27T07:55:09.927Z,65.56
2023-04-27T07:58:19.011Z,65.59
2023-04-27T08:01:25.011Z,65.93
2023-04-27T08:04:31.766Z,66.24
2023-04-27T08:07:44.127Z,65.99
2023-04-27T08:10:46.545Z,65.86
2023-04-27T08:13:52.277Z,66.01
2023-04-27T08:16:58.861Z,66.07
2023-04-27T08:20:05.820Z,66.10
2023-04-27T08:23:14.522Z,66.22
2023-04-27T08:26:20.972Z,66.27
2023-04-27T08:29:28.825Z,66.37
2023-04-27T08:32:36.417Z,66.62
2023-04-27T08:35:43.083Z,66.74
2023-04-27T08:38:51.349Z,66.90
2023-04-27T08:42:01.189Z,66.93
2023-04-27T08:45:05.941Z,67.08
2023-04-27T08:48:11.216Z,67.22
2023-04-27T08:51:18.778Z,67.26
2023-04-27T08:54:25.968Z,67.34
2023-04-27T08:57:34.283Z,66.91
2023-04-27T09:00:42.491Z,66.92
2023-04-27T09:03:53.040Z,66.92
2023-04-27T09:06:58.976Z,66.92
2023-04-27T09:10:05.038Z,66.98
2023-04-27T09:13:14.283Z,66.94
2023-04-27T09:16:21.304Z,66.76
2023-04-27T09:19:31.018Z,66.72
2023-04-27T09:22:36.504Z,66.74
2023-04-27T09:25:45.760Z,66.66
2023-04-27T09:28:57.534Z,66.63
2023-04-27T09:32:03.248Z,66.62
2023-04-27T09:35:10.499Z,66.81
2023-04-27T09:38:17.074Z,66.80
2023-04-27T09:41:24.786Z,66.68
2023-04-27T09:44:31.158Z,66.66
2023-04-27T09:47:38.184Z,66.53
2023-04-27T09:50:44.721Z,66.51
2023-04-27T09:54:05.299Z,66.29
2023-04-27T09:57:22.698Z,66.15
2023-04-27T10:01:00.981Z,66.31
2023-04-27T10:04:32.609Z,66.09
2023-04-27T10:07:40.230Z,66.16
2023-04-27T10:10:49.965Z,66.48
2023-04-27T10:14:08.118Z,66.75
2023-04-27T10:17:14.893Z,66.30
2023-04-27T10:20:24.087Z,65.59
2023-04-27T10:23:41.366Z,65.27
2023-04-27T10:26:45.933Z,65.20
2023-04-27T10:29:57.161Z,65.45
2023-04-27T10:33:14.291Z,65.30
2023-04-27T10:36:21.163Z,65.06
2023-04-27T10:39:46.883Z,64.80
2023-04-27T10:42:43.674Z,64.36
2023-04-27T10:45:49.141Z,63.88
2023-04-27T10:49:00.516Z,63.78
2023-04-27T10:52:06.345Z,63.83
2023-04-27T10:55:13.582Z,64.04
2023-04-27T10:58:18.868Z,64.20
2023-04-27T11:01:28.709Z,63.87
2023-04-27T11:04:39.598Z,63.61
2023-04-27T11:08:01.306Z,63.57
2023-04-27T11:11:08.453Z,63.71
2023-04-27T11:14:17.280Z,63.49
2023-04-27T11:17:23.308Z,63.51
2023-04-27T11:20:33.414Z,63.34
2023-04-27T11:23:48.704Z,63.31
2023-04-27T11:26:55.119Z,62.97
2023-04-27T11:30:01.861Z,62.77
2023-04-27T11:33:09.841Z,62.71
2023-04-27T11:36:15.928Z,62.19
2023-04-27T11:39:22.147Z,62.14
2023-04-27T11:42:37.992Z,61.99
2023-04-27T11:45:45.766Z,61.50
2023-04-27T11:48:53.799Z,61.39
2023-04-27T11:52:00.688Z,61.51
2023-04-27T11:55:07.790Z,61.63
2023-04-27T11:58:15.062Z,61.08
2023-04-27T12:01:36.957Z,60.62
2023-04-27T12:04:37.598Z,60.10
2023-04-27T12:07:42.833Z,60.00
2023-04-27T12:10:48.078Z,60.00
2023-04-27T12:13:56.299Z,59.85
2023-04-27T12:17:02.651Z,59.69
2023-04-27T12:20:09.468Z,59.47
2023-04-27T12:23:16.542Z,59.45
2023-04-27T12:26:21.502Z,59.56
2023-04-27T12:29:29.068Z,59.51
2023-04-27T12:32:35.302Z,59.27
2023-04-27T12:35:42.235Z,58.93
2023-04-27T12:38:49.394Z,58.57
2023-04-27T12:41:57.569Z,58.48
2023-04-27T12:45:05.685Z,58.23
2023-04-27T12:48:11.648Z,58.01
2023-04-27T12:51:20.423Z,57.99
2023-04-27T12:54:27.258Z,58.03
2023-04-27T12:57:33.738Z,57.76
2023-04-27T13:00:40.529Z,57.65
2023-04-27T13:03:45.746Z,57.54
2023-04-27T13:06:53.818Z,57.40
2023-04-27T13:10:00.016Z,57.24
2023-04-27T13:13:06.626Z,56.95
2023-04-27T13:16:12.567Z,56.84
2023-04-27T13:19:18.784Z,56.66
2023-04-27T13:22:24.151Z,56.59
2023-04-27T13:25:30.140Z,56.54
2023-04-27T13:28:35.844Z,56.65
2023-04-27T13:31:41.038Z,56.62
2023-04-27T13:35:04.326Z,56.74
2023-04-27T13:38:10.341Z,56.69
2023-04-27T13:41:16.357Z,56.64
2023-04-27T13:44:23.411Z,56.66
2023-04-27T13:47:29.542Z,56.71
2023-04-27T13:50:36.329Z,56.79
2023-04-27T13:53:43.121Z,56.93
2023-04-27T13:56:49.366Z,57.07
2023-04-27T13:59:57.661Z,57.09
2023-04-27T14:03:05.525Z,57.17
2023-04-27T14:06:12.122Z,57.23
2023-04-27T14:09:18.642Z,57.16
2023-04-27T14:12:24.903Z,56.97
2023-04-27T14:15:31.920Z,56.64
2023-04-27T14:18:37.013Z,56.33
2023-04-27T14:21:42.900Z,56.09
2023-04-27T14:24:49.112Z,56.19
2023-04-27T14:27:56.198Z,56.10
2023-04-27T14:31:02.665Z,56.29
2023-04-27T14:34:08.717Z,56.46
2023-04-27T14:37:14.693Z,56.45
2023-04-27T14:40:22.372Z,56.33
2023-04-27T14:43:29.350Z,56.32
2023-04-27T14:46:35.629Z,56.16
2023-04-27T14:49:42.677Z,56.00
2023-04-27T14:52:49.525Z,56.11
2023-04-27T14:55:55.815Z,56.25
2023-04-27T14:59:02.009Z,56.44
2023-04-27T15:02:07.600Z,56.63
2023-04-27T15:05:13.917Z,56.77
2023-04-27T15:08:20.345Z,57.07
2023-04-27T15:11:20.160Z,57.11
2023-04-27T15:14:08.541Z,57.14
2023-04-27T15:17:02.637Z,57.13
2023-04-27T15:20:03.791Z,57.16
2023-04-27T15:23:10.141Z,57.18
2023-04-27T15:26:15.301Z,57.27
2023-04-27T15:29:22.013Z,57.42
2023-04-27T15:32:30.228Z,57.45
2023-04-27T15:35:35.521Z,57.47
2023-04-27T15:38:43.221Z,57.49
2023-04-27T15:41:48.662Z,57.50
2023-04-27T15:44:54.535Z,57.56
2023-04-27T15:48:00.620Z,57.73
2023-04-27T15:51:08.873Z,57.80
2023-04-27T15:54:15.132Z,57.90
2023-04-27T15:57:20.924Z,57.92
2023-04-27T16:00:29.489Z,58.05
2023-04-27T16:03:37.125Z,58.25
2023-04-27T16:06:48.244Z,58.43
2023-04-27T16:09:54.478Z,58.60
2023-04-27T16:13:01.317Z,58.83
2023-04-27T16:16:07.285Z,59.10
2023-04-27T16:19:14.303Z,59.35
2023-04-27T16:22:22.624Z,59.63
2023-04-27T16:25:28.156Z,59.91
2023-04-27T16:28:35.559Z,60.15
2023-04-27T16:31:40.630Z,60.34
2023-04-27T16:34:46.300Z,60.55
2023-04-27T16:37:52.567Z,60.86
2023-04-27T16:41:01.368Z,61.14
2023-04-27T16:44:07.268Z,61.47
2023-04-27T16:47:13.312Z,61.79
2023-04-27T16:50:18.653Z,62.02
2023-04-27T16:53:26.830Z,62.21
2023-04-27T16:56:43.336Z,62.48
2023-04-27T16:59:49.095Z,62.71
2023-04-27T17:02:54.800Z,63.02
2023-04-27T17:06:03.901Z,63.26
2023-04-27T17:09:13.810Z,63.42
2023-04-27T17:12:22.253Z,63.60
2023-04-27T17:15:28.329Z,63.78
2023-04-27T17:18:37.536Z,63.95
2023-04-27T17:21:44.754Z,64.15
2023-04-27T17:24:50.765Z,64.31
2023-04-27T17:27:55.882Z,64.54
2023-04-27T17:31:02.138Z,64.68
2023-04-27T17:34:07.007Z,64.92
2023-04-27T17:37:13.726Z,65.13
2023-04-27T17:40:20.323Z,65.25
2023-04-27T17:43:27.663Z,65.42
2023-04-27T17:46:33.920Z,65.53
2023-04-27T17:49:40.836Z,65.63
2023-04-27T17:52:48.139Z,65.71
2023-04-27T17:55:58.188Z,65.83
2023-04-27T17:59:03.987Z,65.92
2023-04-27T18:02:10.538Z,66.10
2023-04-27T18:05:15.920Z,66.27
2023-04-27T18:08:22.505Z,66.39
2023-04-27T18:11:29.395Z,66.53
2023-04-27T18:14:36.556Z,66.65
2023-04-27T18:17:42.684Z,66.79
2023-04-27T18:20:51.402Z,66.90
2023-04-27T18:23:57.891Z,67.06
2023-04-27T18:27:04.483Z,67.17
2023-04-27T18:30:11.225Z,67.27
2023-04-27T18:33:16.657Z,67.43
2023-04-27T18:36:22.943Z,67.59
2023-04-27T18:39:29.052Z,67.71
2023-04-27T18:42:35.615Z,67.80
2023-04-27T18:45:42.054Z,67.88
2023-04-27T18:48:48.815Z,68.00
2023-04-27T18:51:55.002Z,68.12
2023-04-27T18:55:02.378Z,68.25
2023-04-27T18:58:08.653Z,68.32
2023-04-27T19:01:14.430Z,68.45
2023-04-27T19:04:21.363Z,68.55
2023-04-27T19:07:31.554Z,68.58
2023-04-27T19:10:38.342Z,68.64
2023-04-27T19:13:44.567Z,68.74
2023-04-27T19:16:50.371Z,68.84
2023-04-27T19:19:57.943Z,68.96
2023-04-27T19:23:04.702Z,69.03
2023-04-27T19:26:13.634Z,69.12
2023-04-27T19:29:19.403Z,69.25
2023-04-27T19:32:26.468Z,69.40
2023-04-27T19:35:34.225Z,69.46
2023-04-27T19:38:40.775Z,69.62
2023-04-27T19:41:48.192Z,69.72
2023-04-27T19:44:54.590Z,69.79
2023-04-27T19:48:01.493Z,69.82
2023-04-27T19:51:08.738Z,69.87
2023-04-27T19:54:16.896Z,69.96
2023-04-27T19:57:23.977Z,70.10
2023-04-27T20:00:31.798Z,70.24
2023-04-27T20:03:37.985Z,70.36
2023-04-27T20:06:45.614Z,70.44
2023-04-27T20:09:52.920Z,70.53
2023-04-27T20:12:58.844Z,70.64
2023-04-27T20:16:05.555Z,70.72
2023-04-27T20:19:13.230Z,70.73
2023-04-27T20:22:20.049Z,70.76
2023-04-27T20:25:27.536Z,70.82
2023-04-27T20:28:34.032Z,70.85
2023-04-27T20:31:40.609Z,70.91
2023-04-27T20:34:47.092Z,70.97
2023-04-27T20:37:54.281Z,71.05
2023-04-27T20:41:00.599Z,71.11
2023-04-27T20:44:10.073Z,71.16
2023-04-27T20:47:14.941Z,71.19
2023-04-27T20:50:22.295Z,71.22
2023-04-27T20:53:28.248Z,71.28
2023-04-27T20:56:34.326Z,71.34
2023-04-27T20:59:32.592Z,71.37
2023-04-27T21:02:25.922Z,71.41
2023-04-27T21:05:32.427Z,71.49
2023-04-27T21:08:37.760Z,71.52
2023-04-27T21:11:43.871Z,71.50
2023-04-27T21:14:51.270Z,71.62
2023-04-27T21:17:58.973Z,71.70
2023-04-27T21:21:06.859Z,71.79
2023-04-27T21:24:12.744Z,71.86
2023-04-27T21:27:20.725Z,71.94
2023-04-27T21:30:27.255Z,71.96
2023-04-27T21:33:33.268Z,71.95
2023-04-27T21:36:41.538Z,72.00
2023-04-27T21:39:48.046Z,72.06
2023-04-27T21:42:54.604Z,72.12
2023-04-27T21:45:59.469Z,72.16
2023-04-27T21:49:05.525Z,72.21
2023-04-27T21:52:10.789Z,72.27
2023-04-27T21:55:15.843Z,72.32
2023-04-27T21:58:21.681Z,72.41
2023-04-27T22:01:28.129Z,72.46
2023-04-27T22:04:33.615Z,72.53
2023-04-27T22:07:38.956Z,72.58
2023-04-27T22:10:44.018Z,72.64
2023-04-27T22:13:50.940Z,72.65
2023-04-27T22:16:57.098Z,72.68
2023-04-27T22:20:02.976Z,72.69
2023-04-27T22:23:08.728Z,72.70
2023-04-27T22:26:14.432Z,72.78
2023-04-27T22:29:21.325Z,72.80
2023-04-27T22:32:27.611Z,72.81
2023-04-27T22:35:32.925Z,72.86
2023-04-27T22:38:39.953Z,72.91
2023-04-27T22:41:46.025Z,72.97
2023-04-27T22:44:53.180Z,73.02
2023-04-27T22:47:59.645Z,73.08
2023-04-27T22:51:05.150Z,73.15
2023-04-27T22:54:11.314Z,73.19
2023-04-27T22:57:15.813Z,73.26
2023-04-27T23:00:22.366Z,73.33
2023-04-27T23:03:27.666Z,73.33
2023-04-27T23:06:35.053Z,73.37
2023-04-27T23:09:43.107Z,73.42
2023-04-27T23:12:48.439Z,73.47
2023-04-27T23:15:54.769Z,73.47
2023-04-27T23:19:00.351Z,73.49
2023-04-27T23:22:05.823Z,73.55
2023-04-27T23:25:11.367Z,73.55
2023-04-27T23:28:17.379Z,73.54
2023-04-27T23:31:24.123Z,73.58
2023-04-27T23:34:30.570Z,73.62
2023-04-27T23:37:36.596Z,73.59
2023-04-27T23:40:43.097Z,73.65
2023-04-27T23:43:50.066Z,73.62
2023-04-27T23:46:56.291Z,73.61
2023-04-27T23:50:02.117Z,73.63
2023-04-27T23:53:09.070Z,73.67
2023-04-27T23:56:15.888Z,73.70
2023-04-27T23:59:22.192Z,73.77
